Main page
METAR-TAF:

METAR-TAF

Airports :

Whiting_Field_Naval_Air_Station_South_Airport

Milton, Florida, United States

latitude: 30-41-50N, longitude: 087-01-12W, elevation: 177 ft

Current weather observation

The report was made 42 minutes ago, at 12:56 UTC
Wind 5 mph from variable directions
Temperature 81°F
Humidity 79%
Pressure 30.00 in. Hg
Visibility: 10 miles
Few clouds at a height of 2300 ft
Scattered clouds at a height of 25000 ft

METAR: KNDZ 281256Z VRB04KT 10SM FEW023 SCT250 27/23 A3000 RMK SLP144 T02670228

Time: 08:38 (13:38 UTC)


TAF: missing

Weather observations and forecasts of more than 4000 airports (METAR and TAF reports).

The available stations are represented by yellow and red dots on the map.

Hover mouse over dot to see the name of the station.

Then click to see weather observations and forecasts.

To change the map : click on the green buttons with a black cross to zoom in, on the green button with a dash to zoom out, or on the green arrows for adjacent maps.


METAR-TAF: